Terminal Aerodrome Forecast
Issued by NWS Wilmington, OH

Current Version | Previous Version | Text Only | Print | Product List | Glossary Off
Versions: 1 2 3 4 5 6 7 8 9 10 11 12 13 14 15 16 17 18 19 20 21 22 23 24 25

127
FTUS41 KILN 220254 AAB
TAFCMH
TAF AMD
KCMH 220254Z 2203/2224 19004KT 2SM BR VCSH BKN018 OVC025
     FM220600 19006KT 5SM BR BKN018 OVC025
     FM220900 16006KT P6SM BKN080 WS020/22040KT
     FM221700 17012G20KT P6SM SCT100 BKN150 WS020/22040KT
     FM221900 17012G20KT P6SM VCSH BKN060
     FM222200 17012G20KT 4SM -SHRA BR OVC012=

USA.gov is the U.S. government's official web portal to all federal, state and local government web resources and services.